METAR Data
IDs: Format: Raw Decoded Include TAF

Data at: 0034 UTC 26 Oct 2021

PAVD 252356Z 09005KT 10SM BKN100 06/M04 A2913 RMK AO2 SLP861 T00611039 10067 20033 55003
PAVD 252256Z 12007KT 10SM BKN100 06/M04 A2913 RMK AO2 SLP861 T00611039
PAVD 252156Z 09003KT 10SM FEW060 BKN100 BKN150 06/M04 A2913 RMK AO2 SLP861 T00611039
PAVD 252056Z 12007KT 10SM SCT080 BKN120 BKN150 06/M04 A2914 RMK AO2 SLP865 T00611044 58001
PAVD 251956Z 12008KT 10SM FEW060 BKN110 BKN150 06/M04 A2914 RMK AO2 SLP865 T00561044
PAVD 251856Z 09008KT 10SM FEW080 BKN110 BKN150 04/M04 A2914 RMK AO2 SLP867 T00441044
PAVD 251756Z 01006KT 10SM SCT100 BKN120 BKN150 03/M04 A2914 RMK AO2 SLP866 T00331044 10056 20022 56006
PAVD 251656Z VRB06KT 10SM FEW070 SCT100 BKN150 04/M04 A2914 RMK AO2 SLP867 T00441044
PAVD 251556Z 02005KT 10SM SCT060 BKN150 03/M04 A2915 RMK AO2 SLP869 T00281044
PAVD 251456Z 00000KT 10SM SCT060 BKN150 04/M04 A2916 RMK AO2 SLP872 T00391044 56014
PAVD 251410Z 11008KT 10SM BKN080 BKN150 04/M04 A2917 RMK AO2
PAVD 251356Z AUTO 04005KT 10SM CLR 05/M04 A2917 RMK AO2 SLP875 T00501044
PAVD 251256Z AUTO 04003KT 10SM CLR 04/M04 A2918 RMK AO2 SLP880 T00441044
PAVD 251156Z AUTO 04003KT 10SM CLR 04/M04 A2920 RMK AO2 SLP886 T00441044 10050 20006 57020
PAVD 251056Z AUTO 06004KT 10SM FEW100 04/M04 A2922 RMK AO2 SLP893 T00391044
PAVD 250956Z AUTO 10003KT 10SM SCT120 05/M04 A2924 RMK AO2 SLP899 T00501044
PAVD 250856Z AUTO VRB05KT 10SM CLR 04/M04 A2926 RMK AO2 SLP906 T00441044 56021
PAVD 250756Z AUTO 00000KT 10SM CLR 03/M04 A2927 RMK AO2 SLP912 T00331039 400890006
PAVD 250656Z AUTO 00000KT 10SM SCT120 02/M03 A2929 RMK AO2 SLP917 T00171028 FZRANO
PAVD 250556Z VRB03KT 10SM CLR 01/M02 A2932 RMK AO2 SLP928 T00111022 10078 20006 56022
PAVD 250456Z VRB03KT 10SM CLR 02/M02 A2934 RMK AO2 SLP934 T00221017
PAVD 250356Z 00000KT 10SM FEW080 FEW120 03/M02 A2936 RMK AO2 SLP942 T00281017
PAVD 250256Z 00000KT 10SM FEW050 FEW120 SCT150 03/00 A2939 RMK AO2 SLP949 T00330000 58019
PAVD 250156Z 00000KT 10SM FEW055 FEW120 SCT150 05/01 A2941 RMK AO2 SLP957 T00500011
PAVD 250056Z 00000KT 10SM FEW080 FEW150 SCT200 07/00 A2943 RMK AO2 SLP963 T00670000
PAVD 242356Z 24003KT 10SM FEW080 SCT150 SCT200 08/01 A2944 RMK AO2 SLP968 T00780011 10089 20017 58026
PAVD 242256Z 00000KT 10SM SCT080 SCT150 BKN200 08/M01 A2947 RMK AO2 SLP978 T00831006
PAVD 242156Z 17004KT 10SM FEW030 FEW200 07/M01 A2950 RMK AO2 SLP986 T00671006
PAVD 242056Z 00000KT 10SM FEW070 FEW200 07/00 A2952 RMK AO2 SLP994 T00670000 58010
PAVD 241956Z 06003KT 10SM SCT070 BKN150 BKN300 07/01 A2954 RMK AO2 SLP000 T00670006
PAVD 241856Z COR 00000KT 10SM SCT070 SCT110 BKN150 05/00 A2955 RMK AO2 SLP003 T00500000
PAVD 241756Z 00000KT 10SM FEW030 BKN070 BKN150 02/02 A2955 RMK AO2 SLP004 T00170017 10033 20006 51005
PAVD 241656Z 00000KT 10SM FEW100 SCT150 02/01 A2954 RMK AO2 SLP003 T00170011
PAVD 241556Z 23003KT 10SM FEW030 SCT075 BKN100 02/01 A2954 RMK AO2 SLP003 T00220006
PAVD 241456Z 00000KT 10SM FEW030 BKN070 OVC120 03/01 A2953 RMK AO2 SLP999 T00330006 53012
PAVD 241410Z 12003KT 10SM FEW024 BKN075 BKN120 02/01 A2953 RMK AO2
PAVD 241356Z AUTO 10004KT 10SM OVC075 02/01 A2952 RMK AO2 SLP994 T00220006 FZRANO
PAVD 241256Z AUTO 07003KT 10SM OVC080 02/01 A2951 RMK AO2 SLP991 T00220011 FZRANO